Time;durP1;ratioP1;P1;durP2;ratioP2;P2;SDS_P1;SDS_P2;PMS_P1;PMS_P2;Temp;Humidity;BMP_temperature;BMP_pressure;BME280_temperature;BME280_humidity;BME280_pressure;Samples;Min_cycle;Max_cycle;Signal;HPM_P1;HPM_P2
2023/01/12 00:00:56;;;;;;;0.87;0.87;;;3.80;89.50;;;;;;5004187;28;20189;-79
2023/01/12 00:03:22;;;;;;;1.10;0.93;;;3.70;89.90;;;;;;5004449;28;20191;-78
2023/01/12 00:05:47;;;;;;;1.80;1.70;;;3.80;89.50;;;;;;5006121;28;20296;-78
2023/01/12 00:08:13;;;;;;;1.07;1.07;;;3.70;89.80;;;;;;5004947;28;20196;-79
2023/01/12 00:10:40;;;;;;;1.33;1.23;;;3.70;89.90;;;;;;5005095;28;20251;-77
2023/01/12 00:13:06;;;;;;;1.30;1.23;;;3.70;89.90;;;;;;5011696;28;20184;-78
2023/01/12 00:18:18;;;;;;;1.60;1.50;;;3.80;89.50;;;;;;5004971;28;20278;-79
2023/01/12 00:20:48;;;;;;;1.17;1.10;;;3.80;89.40;;;;;;5003887;28;20245;-79
2023/01/12 00:23:13;;;;;;;0.97;0.80;;;3.80;89.40;;;;;;4986830;28;20216;-78
2023/01/12 00:25:39;;;;;;;1.17;1.07;;;3.80;89.50;;;;;;5005462;28;20629;-78
2023/01/12 00:28:05;;;;;;;1.13;1.03;;;3.80;89.40;;;;;;5004334;28;20181;-78
2023/01/12 00:30:31;;;;;;;0.93;0.93;;;3.80;89.30;;;;;;5004296;28;20220;-78
2023/01/12 00:32:56;;;;;;;1.50;1.40;;;3.90;89.20;;;;;;5009543;28;20251;-78
2023/01/12 00:35:22;;;;;;;1.00;1.00;;;3.90;89.20;;;;;;5004662;28;20569;-78
2023/01/12 00:37:48;;;;;;;1.10;1.10;;;3.90;88.90;;;;;;5006891;28;20238;-78
2023/01/12 00:40:13;;;;;;;1.67;1.57;;;4.00;88.90;;;;;;5004375;28;20275;-78
2023/01/12 00:45:24;;;;;;;1.10;1.10;;;4.00;88.90;;;;;;4998449;28;20188;-77
2023/01/12 00:47:50;;;;;;;1.27;1.17;;;3.90;89.00;;;;;;4997650;28;20244;-79
2023/01/12 00:50:16;;;;;;;0.87;0.87;;;3.90;89.00;;;;;;5002199;28;20184;-78
2023/01/12 00:52:41;;;;;;;0.97;0.93;;;3.90;89.10;;;;;;5003753;28;20188;-78
2023/01/12 00:55:07;;;;;;;1.20;1.20;;;3.90;89.00;;;;;;5003542;28;20255;-79
2023/01/12 00:57:33;;;;;;;1.20;1.10;;;3.90;89.20;;;;;;5003795;28;20263;-78
2023/01/12 00:59:59;;;;;;;1.73;1.27;;;3.80;89.30;;;;;;5004562;28;20195;-78
2023/01/12 01:02:25;;;;;;;1.20;1.10;;;3.80;89.40;;;;;;5005332;28;20259;-79
2023/01/12 01:04:51;;;;;;;0.90;0.90;;;3.70;89.50;;;;;;5003583;28;20196;-77
2023/01/12 01:07:17;;;;;;;1.50;1.40;;;3.70;89.50;;;;;;5003662;28;20662;-78
2023/01/12 01:09:43;;;;;;;1.40;1.30;;;3.70;89.50;;;;;;5017675;28;20215;-79
2023/01/12 01:12:09;;;;;;;1.40;1.30;;;3.70;89.80;;;;;;5003214;28;21429;-78
2023/01/12 01:14:35;;;;;;;1.40;1.30;;;3.70;89.40;;;;;;5003396;28;20718;-79
2023/01/12 01:17:00;;;;;;;1.40;1.00;;;3.70;89.70;;;;;;4998680;28;20276;-79
2023/01/12 01:19:26;;;;;;;1.17;1.10;;;3.60;90.10;;;;;;5003048;28;20182;-78
2023/01/12 01:21:52;;;;;;;1.23;1.23;;;3.60;90.00;;;;;;5000388;28;20185;-79
2023/01/12 01:24:17;;;;;;;1.17;0.83;;;3.60;90.20;;;;;;5004121;28;20188;-79
2023/01/12 01:26:43;;;;;;;0.90;0.90;;;3.50;90.50;;;;;;4999102;28;20248;-79
2023/01/12 01:29:09;;;;;;;0.80;0.80;;;3.50;90.70;;;;;;5003131;28;20256;-77
2023/01/12 01:31:35;;;;;;;1.83;1.40;;;3.50;90.50;;;;;;5002825;28;20913;-77
2023/01/12 01:34:01;;;;;;;1.23;1.13;;;3.50;90.50;;;;;;5010288;28;20185;-78
2023/01/12 01:36:27;;;;;;;1.33;1.03;;;3.50;90.50;;;;;;4990176;28;20638;-78
2023/01/12 01:38:53;;;;;;;1.27;1.17;;;3.50;90.60;;;;;;5010503;28;20208;-79
2023/01/12 01:41:24;;;;;;;1.60;1.40;;;3.50;90.60;;;;;;5008235;28;20177;-76
2023/01/12 01:43:52;;;;;;;1.27;1.13;;;3.50;90.50;;;;;;5007940;28;20185;-77
2023/01/12 01:46:39;;;;;;;2.33;1.13;;;3.50;90.50;;;;;;5006898;28;20181;-77
2023/01/12 01:49:13;;;;;;;1.70;1.60;;;3.50;90.50;;;;;;5006723;28;20189;-77
2023/01/12 01:51:39;;;;;;;0.80;0.80;;;3.60;90.20;;;;;;4999782;28;20326;-76
2023/01/12 01:54:05;;;;;;;0.93;0.93;;;3.60;90.20;;;;;;5006003;28;20203;-77
2023/01/12 01:56:32;;;;;;;0.93;0.93;;;3.70;90.10;;;;;;5007110;28;20184;-79
2023/01/12 01:59:13;;;;;;;1.13;1.07;;;3.50;90.60;;;;;;5006930;28;20189;-78
2023/01/12 02:01:38;;;;;;;0.80;0.80;;;3.50;90.60;;;;;;5006485;28;20205;-79
2023/01/12 02:04:05;;;;;;;1.20;1.20;;;3.50;90.60;;;;;;4998137;28;20212;-79
2023/01/12 02:06:32;;;;;;;1.20;1.10;;;3.50;90.60;;;;;;5008562;28;20570;-79
2023/01/12 02:09:05;;;;;;;1.20;1.10;;;3.60;90.40;;;;;;5007057;28;20268;-79
2023/01/12 02:17:29;;;;;;;1.90;1.07;;;3.70;90.30;;;;;;5007649;28;20196;-76
2023/01/12 02:20:22;;;;;;;0.87;0.87;;;3.60;90.10;;;;;;5010024;28;20880;-79
2023/01/12 02:23:09;;;;;;;0.90;0.90;;;3.60;90.10;;;;;;5011340;28;20193;-76
2023/01/12 02:26:02;;;;;;;1.37;1.03;;;3.60;90.20;;;;;;5003372;28;20192;-77
2023/01/12 02:28:53;;;;;;;1.80;1.43;;;3.60;90.30;;;;;;5006576;28;20189;-78
2023/01/12 02:31:37;;;;;;;1.33;1.23;;;3.60;90.10;;;;;;5006217;28;20221;-78
2023/01/12 02:34:23;;;;;;;1.20;1.20;;;3.60;90.20;;;;;;5008023;28;20214;-77
2023/01/12 02:37:10;;;;;;;1.13;1.10;;;3.60;90.10;;;;;;5009454;28;20184;-77
2023/01/12 02:39:58;;;;;;;1.37;1.17;;;3.60;90.10;;;;;;4998835;28;20208;-78
2023/01/12 02:42:40;;;;;;;1.47;0.77;;;3.50;90.50;;;;;;5005493;28;20219;-78
2023/01/12 02:45:17;;;;;;;1.33;1.17;;;3.50;90.50;;;;;;5007290;28;20185;-77
2023/01/12 02:47:55;;;;;;;0.87;0.87;;;3.40;90.60;;;;;;4994738;28;20260;-75
2023/01/12 02:50:41;;;;;;;1.23;0.90;;;3.40;90.60;;;;;;5006891;28;20173;-78
2023/01/12 02:53:17;;;;;;;1.27;1.27;;;3.40;90.70;;;;;;5006474;28;20196;-78
2023/01/12 02:55:44;;;;;;;1.43;1.33;;;3.40;90.70;;;;;;5006917;28;20196;-78
2023/01/12 02:58:13;;;;;;;1.10;1.07;;;3.50;90.60;;;;;;5006248;28;20216;-77
2023/01/12 03:00:41;;;;;;;1.77;1.40;;;3.50;90.60;;;;;;5005831;28;20192;-78
2023/01/12 03:03:07;;;;;;;1.10;1.10;;;3.50;90.60;;;;;;5005392;28;20268;-79
2023/01/12 03:05:33;;;;;;;1.50;1.40;;;3.50;90.60;;;;;;5006437;28;20204;-78
2023/01/12 03:08:01;;;;;;;2.63;1.23;;;3.50;90.70;;;;;;4986776;28;20185;-78
2023/01/12 03:10:29;;;;;;;1.20;1.10;;;3.50;90.60;;;;;;4993528;28;20188;-78
2023/01/12 03:12:58;;;;;;;1.17;1.17;;;3.50;90.60;;;;;;5008645;28;20184;-78
2023/01/12 03:15:27;;;;;;;1.13;1.00;;;3.50;90.50;;;;;;5005267;28;20185;-78
2023/01/12 03:18:06;;;;;;;0.73;0.73;;;3.40;90.80;;;;;;5005729;28;20208;-79
2023/01/12 03:20:42;;;;;;;1.17;1.10;;;3.50;90.80;;;;;;5005627;28;20180;-79
2023/01/12 03:23:17;;;;;;;1.53;0.97;;;3.30;91.30;;;;;;5007390;28;20639;-78
2023/01/12 03:25:44;;;;;;;1.70;1.33;;;3.40;91.30;;;;;;5005824;28;20194;-78
2023/01/12 03:28:13;;;;;;;0.93;0.70;;;3.40;91.10;;;;;;5005523;28;20181;-78
2023/01/12 03:30:53;;;;;;;1.00;1.00;;;3.40;91.30;;;;;;5005331;28;20300;-78
2023/01/12 03:33:18;;;;;;;0.97;0.87;;;3.40;91.50;;;;;;5004206;28;20203;-80
2023/01/12 03:35:59;;;;;;;1.03;1.03;;;3.40;91.20;;;;;;5003877;28;20223;-78
2023/01/12 03:38:45;;;;;;;1.03;1.03;;;3.40;91.50;;;;;;5001085;28;20181;-78
2023/01/12 03:41:24;;;;;;;0.90;0.90;;;3.40;91.20;;;;;;4992478;28;20201;-79
2023/01/12 03:43:54;;;;;;;2.07;1.10;;;3.40;91.50;;;;;;5001777;28;20192;-78
2023/01/12 03:46:26;;;;;;;1.50;1.40;;;3.50;91.30;;;;;;5003674;28;20181;-77
2023/01/12 03:48:56;;;;;;;0.97;0.97;;;3.40;91.70;;;;;;5010722;28;20307;-77
2023/01/12 03:51:31;;;;;;;2.13;1.07;;;3.30;92.00;;;;;;5004673;28;20224;-77
2023/01/12 03:53:57;;;;;;;1.43;1.30;;;3.50;91.60;;;;;;5004538;28;20176;-79
2023/01/12 03:56:28;;;;;;;1.13;0.90;;;3.40;91.70;;;;;;4977347;28;20181;-77
2023/01/12 03:58:54;;;;;;;1.27;1.23;;;3.50;91.70;;;;;;5001292;28;20271;-77
2023/01/12 04:01:20;;;;;;;0.90;0.90;;;3.40;92.00;;;;;;5005407;28;20283;-77
2023/01/12 04:03:46;;;;;;;1.07;1.03;;;3.40;92.10;;;;;;5004877;28;20651;-76
2023/01/12 04:06:11;;;;;;;0.80;0.80;;;3.40;92.20;;;;;;5004957;28;20814;-76
2023/01/12 04:08:37;;;;;;;1.20;1.10;;;3.40;92.10;;;;;;5004729;28;20300;-77
2023/01/12 04:12:08;;;;;;;1.13;1.10;;;3.40;92.20;;;;;;5004986;28;20220;-77
2023/01/12 04:13:48;;;;;;;0.60;0.60;;;3.40;92.20;;;;;;5002547;28;20185;-77
2023/01/12 04:16:14;;;;;;;1.53;1.20;;;3.50;92.10;;;;;;5005436;28;20188;-78
2023/01/12 04:18:39;;;;;;;0.90;0.90;;;3.50;91.80;;;;;;5004557;28;20189;-78
2023/01/12 04:21:05;;;;;;;1.43;1.20;;;3.60;91.80;;;;;;5003592;28;20192;-78
2023/01/12 04:23:30;;;;;;;1.90;0.80;;;3.60;91.70;;;;;;5004283;28;20208;-78
2023/01/12 04:25:56;;;;;;;1.87;1.60;;;3.60;91.80;;;;;;5011361;28;20616;-78
2023/01/12 04:28:22;;;;;;;1.20;1.10;;;3.60;91.90;;;;;;5004578;28;20320;-78
2023/01/12 04:30:47;;;;;;;1.57;1.10;;;3.60;91.60;;;;;;5004202;28;20759;-78
2023/01/12 04:33:13;;;;;;;1.43;0.90;;;3.70;91.50;;;;;;5004051;28;20667;-78
2023/01/12 04:35:38;;;;;;;1.03;1.03;;;3.70;91.40;;;;;;5004208;28;20220;-78
2023/01/12 04:38:06;;;;;;;1.17;1.17;;;3.80;91.30;;;;;;5004785;28;20316;-78
2023/01/12 04:40:31;;;;;;;1.00;0.87;;;3.80;91.30;;;;;;5002953;28;20192;-78
2023/01/12 04:43:00;;;;;;;1.77;1.43;;;3.80;91.30;;;;;;4983347;28;20185;-79
2023/01/12 04:45:36;;;;;;;1.00;1.00;;;3.70;91.50;;;;;;4996593;28;20177;-76
2023/01/12 04:48:13;;;;;;;1.93;1.17;;;3.60;91.80;;;;;;4997223;28;20336;-79
2023/01/12 04:50:40;;;;;;;2.73;1.03;;;3.70;91.30;;;;;;5002730;28;20315;-78
2023/01/12 04:53:08;;;;;;;1.80;0.77;;;3.70;91.50;;;;;;4998684;28;20228;-78
2023/01/12 04:55:39;;;;;;;1.93;1.27;;;3.60;91.90;;;;;;5008712;28;20199;-78
2023/01/12 04:58:05;;;;;;;1.57;1.47;;;3.60;92.00;;;;;;4986799;28;20839;-78
2023/01/12 05:00:31;;;;;;;1.10;1.10;;;3.50;92.20;;;;;;4997884;28;20195;-79
2023/01/12 05:03:00;;;;;;;3.07;1.53;;;3.60;92.10;;;;;;5008974;28;20679;-79
2023/01/12 05:05:27;;;;;;;0.83;0.80;;;3.50;92.30;;;;;;5011650;28;20298;-79
2023/01/12 05:10:37;;;;;;;1.40;1.30;;;3.40;92.60;;;;;;5000545;28;21021;-79
2023/01/12 05:13:04;;;;;;;1.80;1.30;;;3.50;92.70;;;;;;5006805;28;20193;-78
2023/01/12 05:15:29;;;;;;;1.37;0.90;;;3.50;92.30;;;;;;5008389;28;20215;-76
2023/01/12 05:17:56;;;;;;;1.80;1.57;;;3.50;92.70;;;;;;5007403;28;20232;-74
2023/01/12 05:20:22;;;;;;;1.40;1.30;;;3.50;92.60;;;;;;5005817;28;20204;-76
2023/01/12 05:22:49;;;;;;;1.80;1.10;;;3.50;92.40;;;;;;4998075;28;20271;-77
2023/01/12 05:25:15;;;;;;;1.63;1.20;;;3.60;92.30;;;;;;5006477;28;20208;-75
2023/01/12 05:27:40;;;;;;;2.10;1.77;;;3.60;92.30;;;;;;5005327;28;20212;-77
2023/01/12 05:30:07;;;;;;;0.83;0.83;;;3.60;92.20;;;;;;5005262;28;20271;-75
2023/01/12 05:32:37;;;;;;;3.13;1.23;;;3.50;92.40;;;;;;5005869;28;20224;-78
2023/01/12 05:35:05;;;;;;;2.43;1.30;;;3.50;92.50;;;;;;5008297;28;20184;-79
2023/01/12 05:37:30;;;;;;;1.17;0.93;;;3.50;92.60;;;;;;5015415;28;21058;-76
2023/01/12 05:39:56;;;;;;;0.93;0.93;;;3.50;92.70;;;;;;5007670;28;20276;-77
2023/01/12 05:45:06;;;;;;;0.77;0.77;;;3.40;92.90;;;;;;5006012;28;20192;-76
2023/01/12 05:47:32;;;;;;;1.43;1.33;;;3.50;92.80;;;;;;5007326;28;20738;-77
2023/01/12 05:49:58;;;;;;;1.17;1.17;;;3.50;92.70;;;;;;5006191;28;20209;-75
2023/01/12 05:52:24;;;;;;;1.53;1.23;;;3.50;93.00;;;;;;5015768;28;20291;-77
2023/01/12 05:54:49;;;;;;;2.70;1.13;;;3.40;93.30;;;;;;5006561;28;20188;-76
2023/01/12 05:57:15;;;;;;;1.50;1.40;;;3.40;93.10;;;;;;5011555;28;20195;-77
2023/01/12 05:59:40;;;;;;;1.77;1.23;;;3.50;93.00;;;;;;5006924;28;20181;-78
2023/01/12 06:02:10;;;;;;;2.20;1.53;;;3.60;92.70;;;;;;5007871;28;20203;-74
2023/01/12 06:04:37;;;;;;;1.10;1.00;;;3.60;92.60;;;;;;4986966;28;20192;-75
2023/01/12 06:07:02;;;;;;;1.13;1.10;;;3.70;92.20;;;;;;5011312;28;20224;-76
2023/01/12 06:09:28;;;;;;;1.53;1.43;;;3.80;92.00;;;;;;5007812;28;20678;-77
2023/01/12 06:14:38;;;;;;;1.37;1.23;;;3.80;92.10;;;;;;5007233;28;20262;-75
2023/01/12 06:17:04;;;;;;;3.63;1.43;;;3.80;92.10;;;;;;5010056;28;20177;-76
2023/01/12 06:19:29;;;;;;;1.27;1.17;;;3.80;92.00;;;;;;5007090;28;20185;-76
2023/01/12 06:21:58;;;;;;;1.37;1.27;;;3.90;92.00;;;;;;5003254;28;20583;-76
2023/01/12 06:24:24;;;;;;;1.73;1.63;;;3.90;92.00;;;;;;5002232;28;20210;-74
2023/01/12 06:26:50;;;;;;;2.40;1.23;;;3.90;91.80;;;;;;5003609;28;20224;-75
2023/01/12 06:29:16;;;;;;;4.53;1.83;;;3.90;91.90;;;;;;4999328;28;20276;-71
2023/01/12 06:31:42;;;;;;;2.53;1.50;;;3.90;91.80;;;;;;5007141;28;20236;-74
2023/01/12 06:34:08;;;;;;;1.60;1.43;;;3.80;92.30;;;;;;5010259;28;20276;-74
2023/01/12 06:36:34;;;;;;;1.20;1.20;;;3.70;92.60;;;;;;5006612;28;20259;-73
2023/01/12 06:39:01;;;;;;;2.33;2.03;;;3.70;92.90;;;;;;5013262;28;20592;-74
2023/01/12 06:44:10;;;;;;;2.30;1.60;;;3.70;92.70;;;;;;5006207;28;20719;-74
2023/01/12 06:46:36;;;;;;;1.57;1.47;;;3.70;93.00;;;;;;5010509;28;20181;-75
2023/01/12 06:49:02;;;;;;;2.13;2.03;;;3.70;93.10;;;;;;5006334;28;20584;-75
2023/01/12 06:51:28;;;;;;;1.63;1.50;;;3.70;93.20;;;;;;5009315;28;20658;-75
2023/01/12 06:53:53;;;;;;;1.20;1.20;;;3.70;93.20;;;;;;4999490;28;20177;-75
2023/01/12 06:56:19;;;;;;;1.90;1.00;;;3.60;93.40;;;;;;4987249;28;20191;-75
2023/01/12 06:58:45;;;;;;;1.50;1.23;;;3.60;93.50;;;;;;5004290;28;20324;-75
2023/01/12 07:01:12;;;;;;;1.43;1.37;;;3.60;93.70;;;;;;5006373;28;21031;-75
2023/01/12 07:03:38;;;;;;;1.17;1.10;;;3.60;93.70;;;;;;4987736;28;20674;-74
2023/01/12 07:06:04;;;;;;;1.53;1.43;;;3.60;93.70;;;;;;5006511;28;20192;-74
2023/01/12 07:08:31;;;;;;;2.20;1.30;;;3.60;93.60;;;;;;4996414;28;20190;-75
2023/01/12 07:11:03;;;;;;;2.10;1.47;;;3.60;93.60;;;;;;5004371;28;20209;-74
2023/01/12 07:13:30;;;;;;;1.63;1.23;;;3.60;93.70;;;;;;5009775;28;20177;-74
2023/01/12 07:16:00;;;;;;;2.20;1.67;;;3.60;93.70;;;;;;5010058;28;20177;-75
2023/01/12 07:18:26;;;;;;;1.33;1.23;;;3.60;94.10;;;;;;4974417;28;20181;-74
2023/01/12 07:20:52;;;;;;;1.07;1.07;;;3.80;93.50;;;;;;5008885;28;20996;-74
2023/01/12 07:23:18;;;;;;;1.50;1.50;;;3.80;93.40;;;;;;4995147;28;20184;-75
2023/01/12 07:25:44;;;;;;;1.37;1.20;;;3.70;93.70;;;;;;5005925;28;20177;-75
2023/01/12 07:28:10;;;;;;;1.83;1.47;;;3.70;93.80;;;;;;5008632;28;20199;-75
2023/01/12 07:30:35;;;;;;;3.30;2.03;;;3.70;93.90;;;;;;5005663;28;20451;-75
2023/01/12 07:33:06;;;;;;;2.37;1.50;;;3.70;94.00;;;;;;5005191;28;20188;-74
2023/01/12 07:35:32;;;;;;;2.73;1.90;;;3.80;93.60;;;;;;5010711;28;20185;-75
2023/01/12 07:37:58;;;;;;;3.90;2.00;;;3.80;93.60;;;;;;5003750;28;20191;-75
2023/01/12 07:40:23;;;;;;;2.10;1.90;;;3.80;93.80;;;;;;5004516;28;20189;-75
2023/01/12 07:42:58;;;;;;;2.90;1.67;;;3.80;93.80;;;;;;5005487;28;20286;-75
2023/01/12 07:45:23;;;;;;;1.87;1.77;;;3.90;93.20;;;;;;4986859;28;20396;-76
2023/01/12 07:47:53;;;;;;;1.27;1.17;;;3.90;93.40;;;;;;4986861;28;20199;-75
2023/01/12 07:50:23;;;;;;;1.30;1.20;;;3.90;93.30;;;;;;5004478;28;20185;-76
2023/01/12 07:52:49;;;;;;;1.67;1.57;;;4.00;93.30;;;;;;5011267;28;20303;-73
2023/01/12 07:55:16;;;;;;;1.63;1.30;;;4.00;93.20;;;;;;5002379;28;20999;-74
2023/01/12 07:58:02;;;;;;;1.17;0.87;;;4.00;93.10;;;;;;5005079;28;20184;-74
2023/01/12 08:00:29;;;;;;;0.97;0.97;;;4.10;92.70;;;;;;5000431;28;20197;-75
2023/01/12 08:03:01;;;;;;;2.27;1.60;;;4.20;92.60;;;;;;5010672;28;20204;-75
2023/01/12 08:05:27;;;;;;;3.60;1.90;;;4.30;92.40;;;;;;5001685;28;20682;-74
2023/01/12 08:07:53;;;;;;;5.60;1.43;;;4.40;92.40;;;;;;5005997;28;20181;-75
2023/01/12 08:10:19;;;;;;;1.60;1.50;;;4.40;92.10;;;;;;5005873;28;20188;-73
2023/01/12 08:12:44;;;;;;;1.60;1.20;;;4.50;92.00;;;;;;5009079;28;20229;-75
2023/01/12 08:15:11;;;;;;;1.33;1.20;;;4.60;92.00;;;;;;5012716;28;20185;-75
2023/01/12 08:17:45;;;;;;;2.37;1.20;;;4.60;91.80;;;;;;5003954;28;20184;-75
2023/01/12 08:20:18;;;;;;;1.10;1.10;;;4.70;91.50;;;;;;5003156;28;20611;-74
2023/01/12 08:22:48;;;;;;;1.20;1.13;;;4.80;91.10;;;;;;5002366;28;20228;-74
2023/01/12 08:25:22;;;;;;;0.80;0.80;;;4.80;90.70;;;;;;5003662;28;20185;-70
2023/01/12 08:27:52;;;;;;;1.40;1.30;;;4.80;90.80;;;;;;5003839;28;20184;-73
2023/01/12 08:30:22;;;;;;;2.60;1.33;;;4.80;91.10;;;;;;5004427;28;20177;-73
2023/01/12 08:32:49;;;;;;;2.00;1.37;;;4.90;90.90;;;;;;5010874;28;20711;-70
2023/01/12 08:35:19;;;;;;;1.87;1.60;;;5.00;90.70;;;;;;4997641;28;20672;-71
2023/01/12 08:37:45;;;;;;;1.20;1.10;;;5.00;90.70;;;;;;5004611;28;20189;-71
2023/01/12 08:40:12;;;;;;;1.23;1.23;;;5.10;90.40;;;;;;4998024;28;20503;-67
2023/01/12 08:42:38;;;;;;;1.10;1.10;;;5.20;90.00;;;;;;4996424;28;20190;-74
2023/01/12 08:45:06;;;;;;;0.77;0.77;;;5.20;89.80;;;;;;5006044;28;20177;-68
2023/01/12 08:47:32;;;;;;;0.73;0.73;;;5.30;89.40;;;;;;5001660;28;20169;-72
2023/01/12 08:49:59;;;;;;;0.90;0.90;;;5.30;89.40;;;;;;5000318;28;20181;-71
2023/01/12 08:52:28;;;;;;;0.80;0.80;;;5.40;88.90;;;;;;4998889;28;20213;-72
2023/01/12 08:54:54;;;;;;;0.93;0.93;;;5.50;88.60;;;;;;5004144;28;20624;-74
2023/01/12 08:57:20;;;;;;;0.87;0.87;;;5.50;88.80;;;;;;5004520;28;20568;-70
2023/01/12 08:59:46;;;;;;;0.80;0.80;;;5.40;88.30;;;;;;4994041;28;20181;-71
2023/01/12 09:02:13;;;;;;;1.17;1.17;;;5.50;88.50;;;;;;5001673;28;20196;-74
2023/01/12 09:04:39;;;;;;;1.27;1.17;;;5.60;88.70;;;;;;4992728;28;20178;-73
2023/01/12 09:07:06;;;;;;;0.83;0.83;;;5.60;88.90;;;;;;5001232;28;20181;-74
2023/01/12 09:09:32;;;;;;;1.10;1.10;;;5.60;87.70;;;;;;4986208;28;20611;-71
2023/01/12 09:11:58;;;;;;;0.70;0.70;;;5.70;87.60;;;;;;4998604;28;20251;-71
2023/01/12 09:14:26;;;;;;;0.93;0.93;;;5.60;87.30;;;;;;5002823;28;20191;-71
2023/01/12 09:16:54;;;;;;;0.60;0.60;;;5.70;87.60;;;;;;5002026;28;20624;-73
2023/01/12 09:19:20;;;;;;;0.50;0.50;;;5.80;87.60;;;;;;5003782;28;20180;-71
2023/01/12 09:21:45;;;;;;;0.87;0.87;;;5.80;87.60;;;;;;5000258;28;20611;-71
2023/01/12 09:24:13;;;;;;;1.27;0.63;;;5.80;87.80;;;;;;5003640;28;20177;-71
2023/01/12 09:26:41;;;;;;;1.20;0.87;;;5.90;88.20;;;;;;5002821;28;20177;-71
2023/01/12 09:29:09;;;;;;;1.00;1.00;;;6.00;87.60;;;;;;5005078;28;20879;-72
2023/01/12 09:31:36;;;;;;;0.90;0.90;;;6.10;87.90;;;;;;5003635;28;20290;-72
2023/01/12 09:34:02;;;;;;;1.20;0.97;;;6.10;87.00;;;;;;4984935;28;20212;-72
2023/01/12 09:36:30;;;;;;;0.80;0.80;;;6.20;86.70;;;;;;5005579;28;20185;-72
2023/01/12 09:38:56;;;;;;;0.80;0.77;;;6.20;86.60;;;;;;5004137;28;20194;-72
2023/01/12 09:47:38;;;;;;;0.90;0.90;;;6.30;85.40;;;;;;5000449;28;20183;-72
2023/01/12 09:50:25;;;;;;;0.87;0.87;;;6.40;86.10;;;;;;5003514;28;20191;-70
2023/01/12 09:53:11;;;;;;;0.90;0.90;;;6.30;84.50;;;;;;4996043;28;20689;-71
2023/01/12 09:56:09;;;;;;;1.10;1.10;;;6.30;84.10;;;;;;5008779;28;20688;-70
2023/01/12 09:58:40;;;;;;;1.20;0.77;;;6.40;84.50;;;;;;5002379;28;20252;-72
2023/01/12 10:01:12;;;;;;;1.30;1.00;;;6.50;84.00;;;;;;4996845;28;20208;-74
2023/01/12 10:03:40;;;;;;;1.23;1.13;;;6.50;84.40;;;;;;5000158;28;20208;-72
2023/01/12 10:06:13;;;;;;;0.63;0.63;;;6.50;83.50;;;;;;4995775;28;20228;-72
2023/01/12 10:08:57;;;;;;;0.60;0.60;;;6.50;82.90;;;;;;5008133;28;20213;-72
2023/01/12 10:11:38;;;;;;;0.97;0.97;;;6.40;82.40;;;;;;5002507;28;20205;-73
2023/01/12 10:14:31;;;;;;;1.30;1.20;;;6.30;82.90;;;;;;5004659;28;20176;-73
2023/01/12 10:17:08;;;;;;;1.83;1.07;;;6.40;83.70;;;;;;5004742;28;20932;-72
2023/01/12 10:19:57;;;;;;;1.30;1.30;;;6.50;83.40;;;;;;5011192;28;20176;-72
2023/01/12 10:22:35;;;;;;;1.00;1.00;;;6.50;83.30;;;;;;5002824;28;20191;-70
2023/01/12 10:25:28;;;;;;;1.53;1.53;;;6.50;83.00;;;;;;5005398;28;20188;-69
2023/01/12 10:27:57;;;;;;;0.93;0.87;;;6.50;83.20;;;;;;4999079;28;20192;-69
2023/01/12 10:30:30;;;;;;;1.07;1.00;;;6.40;83.00;;;;;;5001942;28;20655;-70
2023/01/12 10:33:11;;;;;;;0.80;0.80;;;6.30;82.90;;;;;;5005697;28;20201;-70
2023/01/12 10:35:51;;;;;;;0.70;0.70;;;6.40;83.00;;;;;;5002332;28;20239;-71
2023/01/12 10:38:27;;;;;;;0.80;0.60;;;6.40;83.00;;;;;;5002234;28;20207;-71
2023/01/12 10:41:11;;;;;;;1.60;1.17;;;6.30;82.60;;;;;;5003271;28;20216;-70
2023/01/12 10:43:39;;;;;;;0.47;0.47;;;6.20;83.00;;;;;;5002559;28;20173;-70
2023/01/12 10:46:09;;;;;;;0.70;0.60;;;6.10;82.80;;;;;;4999831;28;20263;-72
2023/01/12 10:48:37;;;;;;;0.93;0.93;;;6.10;83.30;;;;;;5006155;28;20192;-73
2023/01/12 10:51:05;;;;;;;1.10;0.83;;;6.10;83.40;;;;;;5007259;28;20271;-73
2023/01/12 10:53:42;;;;;;;2.17;1.00;;;6.00;83.30;;;;;;5004153;28;20178;-69
2023/01/12 10:56:40;;;;;;;0.90;0.90;;;6.00;83.50;;;;;;4991310;28;20196;-71
2023/01/12 10:59:12;;;;;;;0.77;0.77;;;6.00;83.60;;;;;;5001794;28;20209;-68
2023/01/12 11:01:45;;;;;;;0.63;0.63;;;6.00;83.80;;;;;;5002630;28;20201;-71
2023/01/12 11:04:18;;;;;;;0.67;0.67;;;6.00;83.30;;;;;;4997267;28;20680;-70
2023/01/12 11:06:54;;;;;;;0.83;0.83;;;6.00;83.80;;;;;;5001769;28;20181;-70
2023/01/12 11:09:28;;;;;;;3.60;0.90;;;5.90;83.40;;;;;;5002044;28;20279;-71
2023/01/12 11:12:00;;;;;;;1.40;1.10;;;6.00;83.70;;;;;;5002280;28;20669;-72
2023/01/12 11:14:32;;;;;;;1.33;1.20;;;6.00;83.80;;;;;;5004270;28;20195;-71
2023/01/12 11:17:35;;;;;;;0.70;0.70;;;6.00;83.70;;;;;;5001058;28;20215;-71
2023/01/12 11:20:03;;;;;;;0.80;0.80;;;6.00;83.90;;;;;;4983935;28;20192;-71
2023/01/12 11:22:35;;;;;;;0.80;0.80;;;5.90;84.00;;;;;;5003140;28;20243;-71
2023/01/12 11:25:06;;;;;;;1.00;0.80;;;6.00;84.10;;;;;;4980998;28;20189;-70
2023/01/12 11:27:40;;;;;;;1.17;1.00;;;5.90;84.10;;;;;;5004023;28;21040;-71
2023/01/12 11:30:14;;;;;;;1.17;1.07;;;5.90;84.50;;;;;;5003630;28;20681;-71
2023/01/12 11:33:07;;;;;;;0.83;0.83;;;6.00;84.40;;;;;;5002539;28;20270;-72
2023/01/12 11:35:50;;;;;;;2.00;1.17;;;6.00;84.00;;;;;;5005398;28;20260;-69
2023/01/12 11:38:26;;;;;;;0.70;0.70;;;6.00;83.80;;;;;;5004010;28;20667;-71
2023/01/12 11:40:57;;;;;;;0.47;0.47;;;6.10;83.90;;;;;;5002078;28;20897;-70
2023/01/12 11:43:54;;;;;;;0.70;0.70;;;6.10;83.30;;;;;;4990294;28;20189;-71
2023/01/12 11:46:26;;;;;;;0.77;0.77;;;6.10;83.40;;;;;;5000782;28;20725;-71
2023/01/12 11:49:16;;;;;;;0.90;0.90;;;6.00;83.40;;;;;;4986507;28;20193;-73
2023/01/12 11:51:42;;;;;;;1.10;1.10;;;6.10;83.80;;;;;;4996413;28;20598;-72
2023/01/12 11:54:15;;;;;;;0.93;0.93;;;6.10;84.00;;;;;;5002780;28;20189;-72
2023/01/12 11:56:58;;;;;;;1.20;1.10;;;6.10;83.80;;;;;;4999850;28;20737;-72
2023/01/12 11:59:45;;;;;;;1.10;1.07;;;6.20;83.80;;;;;;4988823;28;20205;-72
2023/01/12 12:02:28;;;;;;;1.37;1.00;;;6.20;83.60;;;;;;5004529;28;20280;-71
2023/01/12 12:05:03;;;;;;;4.43;1.00;;;6.10;83.60;;;;;;4998856;28;20176;-72
2023/01/12 12:07:44;;;;;;;1.47;0.80;;;6.20;84.00;;;;;;4999816;28;20213;-73
2023/01/12 12:10:13;;;;;;;0.90;0.83;;;6.20;83.70;;;;;;5004988;28;20539;-69
2023/01/12 12:13:00;;;;;;;0.70;0.70;;;6.40;83.80;;;;;;5002888;28;20500;-72
2023/01/12 12:15:47;;;;;;;0.80;0.80;;;6.50;83.20;;;;;;4998122;28;20250;-71
2023/01/12 12:18:35;;;;;;;1.10;1.10;;;6.50;83.10;;;;;;5002886;28;20181;-69
2023/01/12 12:21:17;;;;;;;0.77;0.77;;;6.40;83.20;;;;;;4984585;28;20184;-71
2023/01/12 12:24:11;;;;;;;0.80;0.80;;;6.50;83.20;;;;;;4999403;28;21115;-70
2023/01/12 12:26:44;;;;;;;1.37;1.27;;;6.50;83.10;;;;;;5003783;28;20185;-71
2023/01/12 12:29:28;;;;;;;3.13;1.30;;;6.60;83.00;;;;;;5010285;28;20199;-71
2023/01/12 12:31:59;;;;;;;1.13;0.70;;;6.60;82.60;;;;;;5009228;28;20299;-71
2023/01/12 12:34:53;;;;;;;0.83;0.83;;;6.60;82.60;;;;;;5004311;28;20204;-73
2023/01/12 12:37:22;;;;;;;1.10;0.77;;;6.70;82.70;;;;;;5001638;28;20185;-71
2023/01/12 12:39:48;;;;;;;1.40;1.30;;;6.70;82.40;;;;;;4998038;28;20270;-71
2023/01/12 12:45:23;;;;;;;1.37;1.37;;;6.60;82.60;;;;;;5004074;28;20196;-71
2023/01/12 12:48:03;;;;;;;1.60;1.43;;;6.60;82.50;;;;;;5005417;28;20198;-73
2023/01/12 12:50:42;;;;;;;1.07;1.07;;;6.60;82.60;;;;;;5001185;28;20196;-73
2023/01/12 12:53:38;;;;;;;1.37;1.27;;;6.70;82.60;;;;;;5004024;28;20199;-71
2023/01/12 12:56:13;;;;;;;1.40;1.30;;;6.70;82.60;;;;;;5002074;28;20208;-71
2023/01/12 12:58:51;;;;;;;2.73;1.60;;;6.80;82.60;;;;;;5005320;28;20263;-71
2023/01/12 13:01:23;;;;;;;1.10;1.10;;;6.70;82.40;;;;;;4996122;28;20231;-73
2023/01/12 13:03:56;;;;;;;1.60;1.47;;;6.70;82.60;;;;;;4997832;28;20196;-71
2023/01/12 13:06:29;;;;;;;1.20;1.10;;;6.60;82.70;;;;;;5003480;28;20584;-73
2023/01/12 13:08:56;;;;;;;1.13;1.03;;;6.60;82.70;;;;;;5003277;28;21018;-72
2023/01/12 13:11:45;;;;;;;1.30;1.17;;;6.50;83.00;;;;;;5003642;28;20221;-71
2023/01/12 13:14:33;;;;;;;5.83;1.10;;;6.40;83.10;;;;;;4995672;28;20189;-72
2023/01/12 13:17:22;;;;;;;1.73;1.63;;;6.40;83.30;;;;;;5005624;28;20796;-72
2023/01/12 13:20:00;;;;;;;1.33;1.23;;;6.30;83.60;;;;;;5009299;28;20191;-73
2023/01/12 13:22:42;;;;;;;2.20;1.47;;;6.30;83.70;;;;;;5008211;28;20184;-72
2023/01/12 13:25:21;;;;;;;1.13;1.13;;;6.30;83.80;;;;;;5003396;28;20199;-72
2023/01/12 13:27:59;;;;;;;1.70;1.50;;;6.40;83.60;;;;;;5005741;28;20184;-72
2023/01/12 13:30:27;;;;;;;1.67;1.57;;;6.40;83.80;;;;;;5005372;28;20671;-73
2023/01/12 13:33:15;;;;;;;3.10;2.27;;;6.30;83.90;;;;;;5017073;28;20222;-73
2023/01/12 13:35:44;;;;;;;1.73;1.70;;;6.30;84.00;;;;;;4997562;28;20229;-73
2023/01/12 13:38:32;;;;;;;1.60;1.60;;;6.20;84.30;;;;;;5005248;28;20723;-72
2023/01/12 13:41:13;;;;;;;1.10;1.07;;;6.20;84.10;;;;;;5010589;28;20230;-73
2023/01/12 13:43:55;;;;;;;1.37;1.27;;;6.20;84.00;;;;;;4990478;28;20185;-73
2023/01/12 13:46:28;;;;;;;1.10;1.10;;;6.20;84.10;;;;;;5005228;28;20729;-72
2023/01/12 13:48:55;;;;;;;1.13;1.10;;;6.30;84.10;;;;;;5006346;28;21074;-72
2023/01/12 13:51:31;;;;;;;1.83;0.90;;;6.20;84.10;;;;;;4999820;28;20303;-69